Time;durP1;ratioP1;P1;durP2;ratioP2;P2;SDS_P1;SDS_P2;PMS_P1;PMS_P2;Temp;Humidity;BMP_temperature;BMP_pressure;BME280_temperature;BME280_humidity;BME280_pressure;Samples;Min_cycle;Max_cycle;Signal;HPM_P1;HPM_P2
2022/07/16 00:03:46;;;;;;;4.13;1.98;;;;;;;16.56;90.08;93292.28;5048696;28;20047;-85
2022/07/16 00:06:14;;;;;;;3.47;2.17;;;;;;;16.46;90.49;93283.59;5048180;28;20041;-84
2022/07/16 00:08:40;;;;;;;3.95;1.67;;;;;;;16.51;90.82;93284.47;5048435;28;20091;-86
2022/07/16 00:11:07;;;;;;;4.53;2.17;;;;;;;16.52;91.12;93286.00;5048440;28;20052;-85
2022/07/16 00:13:34;;;;;;;2.53;1.80;;;;;;;16.48;91.12;93284.16;5048364;28;20480;-85
2022/07/16 00:16:01;;;;;;;2.70;2.08;;;;;;;16.49;91.66;93276.16;5048853;28;20449;-86
2022/07/16 00:21:12;;;;;;;2.42;1.80;;;;;;;16.41;92.24;93289.53;5048517;28;20056;-86
2022/07/16 00:23:40;;;;;;;5.63;2.40;;;;;;;16.44;92.27;93286.47;5048350;28;20115;-87
2022/07/16 00:26:07;;;;;;;3.03;1.80;;;;;;;16.45;92.19;93289.81;5048276;28;20044;-85
2022/07/16 00:28:33;;;;;;;3.15;2.10;;;;;;;16.25;92.99;93260.84;5048084;28;20037;-85
2022/07/16 00:31:00;;;;;;;4.20;2.00;;;;;;;16.37;92.33;93294.44;5048519;28;20049;-85
2022/07/16 00:33:27;;;;;;;3.95;1.90;;;;;;;16.35;93.00;93285.31;5048079;28;20517;-87
2022/07/16 00:35:54;;;;;;;4.53;2.05;;;;;;;16.32;92.89;93285.81;5047740;28;20041;-83
2022/07/16 00:38:20;;;;;;;2.72;2.20;;;;;;;16.26;92.74;93269.44;5048405;28;20045;-85
2022/07/16 00:40:48;;;;;;;2.97;2.17;;;;;;;16.30;93.46;93286.84;5048385;28;20087;-85
2022/07/16 00:43:16;;;;;;;3.63;2.15;;;;;;;16.27;92.79;93289.94;5047942;28;20041;-85
2022/07/16 00:45:43;;;;;;;3.22;2.28;;;;;;;16.28;94.02;93282.91;5047773;28;20049;-86
2022/07/16 00:48:10;;;;;;;3.20;1.95;;;;;;;16.15;93.06;93260.75;5048047;28;20588;-89
2022/07/16 00:50:37;;;;;;;5.97;2.10;;;;;;;16.28;92.45;93277.72;5048268;28;20436;-86
2022/07/16 00:53:08;;;;;;;3.15;1.90;;;;;;;16.25;92.69;93275.63;5048015;28;20091;-83
2022/07/16 00:55:35;;;;;;;5.43;2.08;;;;;;;16.26;92.61;93284.97;5048512;28;20099;-85
2022/07/16 00:58:03;;;;;;;2.70;1.90;;;;;;;16.16;93.20;93278.66;5051570;28;20037;-84
2022/07/16 01:00:30;;;;;;;4.13;2.10;;;;;;;15.86;93.10;93235.00;5051786;28;20146;-84
2022/07/16 01:02:58;;;;;;;4.25;2.10;;;;;;;16.03;94.09;93282.38;5051436;28;20087;-85
2022/07/16 01:05:26;;;;;;;6.90;2.25;;;;;;;16.02;94.18;93280.06;5052112;28;20399;-86
2022/07/16 01:07:54;;;;;;;2.33;1.88;;;;;;;15.92;95.17;93277.31;5051648;28;20083;-85
2022/07/16 01:10:22;;;;;;;3.70;2.13;;;;;;;15.91;95.74;93284.28;5050799;28;20057;-86
2022/07/16 01:12:49;;;;;;;5.53;2.35;;;;;;;15.92;96.16;93279.91;5051499;28;20131;-86
2022/07/16 01:15:18;;;;;;;3.03;1.88;;;;;;;15.85;96.80;93275.69;5051460;28;20041;-85
2022/07/16 01:17:45;;;;;;;4.22;2.15;;;;;;;15.89;96.66;93284.53;5051510;28;20119;-85
2022/07/16 01:20:12;;;;;;;2.85;2.13;;;;;;;15.89;96.87;93283.75;5051287;28;20094;-84
2022/07/16 01:22:39;;;;;;;5.68;2.40;;;;;;;15.95;96.26;93282.03;5050713;28;20657;-85
2022/07/16 01:25:10;;;;;;;3.33;2.20;;;;;;;15.90;96.59;93277.53;5050984;28;20099;-84
2022/07/16 01:27:38;;;;;;;4.50;2.25;;;;;;;15.86;97.53;93279.84;5050967;28;20133;-85
2022/07/16 01:30:08;;;;;;;3.88;2.45;;;;;;;15.83;96.59;93277.72;5050717;28;20049;-85
2022/07/16 01:32:34;;;;;;;3.85;1.90;;;;;;;15.92;96.85;93283.25;5050216;28;20057;-85
2022/07/16 01:35:02;;;;;;;3.08;2.15;;;;;;;15.96;96.45;93296.56;5049863;28;20041;-85
2022/07/16 01:37:28;;;;;;;3.33;2.30;;;;;;;15.93;96.04;93292.66;5051263;28;20131;-85
2022/07/16 01:39:55;;;;;;;4.20;2.88;;;;;;;15.88;96.56;93279.59;5050486;28;20049;-86
2022/07/16 01:42:23;;;;;;;5.10;2.10;;;;;;;15.89;96.58;93291.53;5049368;28;20045;-84
2022/07/16 01:44:50;;;;;;;3.13;2.08;;;;;;;15.84;96.63;93302.59;5051059;28;20076;-85
2022/07/16 01:47:17;;;;;;;4.38;2.55;;;;;;;15.73;97.01;93293.91;5050396;28;20126;-85
2022/07/16 01:49:45;;;;;;;2.90;2.20;;;;;;;15.72;97.17;93296.75;5049677;28;20506;-86
2022/07/16 01:52:14;;;;;;;3.60;2.83;;;;;;;15.60;97.29;93282.09;5049848;28;20041;-84
2022/07/16 01:54:42;;;;;;;4.43;2.22;;;;;;;15.55;98.03;93284.63;5050559;28;20079;-85
2022/07/16 01:57:09;;;;;;;3.88;2.20;;;;;;;15.56;98.54;93293.94;5050654;28;20126;-85
2022/07/16 01:59:37;;;;;;;2.60;1.88;;;;;;;15.55;98.52;93301.97;5053302;28;20106;-85
2022/07/16 02:02:04;;;;;;;3.97;2.45;;;;;;;15.54;98.10;93293.41;5050957;28;20442;-86
2022/07/16 02:04:31;;;;;;;2.80;2.03;;;;;;;15.58;98.43;93299.69;5050517;28;20049;-85
2022/07/16 02:06:58;;;;;;;6.35;1.90;;;;;;;15.61;97.75;93298.44;5049770;28;20037;-84
2022/07/16 02:09:25;;;;;;;4.18;2.42;;;;;;;15.63;97.80;93302.34;5050310;28;20057;-85
2022/07/16 02:11:51;;;;;;;3.92;2.17;;;;;;;15.54;98.62;93295.19;5050161;28;20072;-83
2022/07/16 02:14:18;;;;;;;2.97;2.20;;;;;;;15.50;98.78;93300.06;5050346;28;20048;-85
2022/07/16 02:16:46;;;;;;;5.25;2.38;;;;;;;15.45;99.07;93300.00;5050315;28;20091;-85
2022/07/16 02:19:13;;;;;;;3.45;2.50;;;;;;;15.45;99.49;93303.38;5050266;28;20044;-85
2022/07/16 02:21:40;;;;;;;4.95;2.22;;;;;;;15.47;99.07;93292.81;5050313;28;20099;-87
2022/07/16 02:24:07;;;;;;;5.80;2.47;;;;;;;15.56;98.96;93306.88;5050241;28;20509;-85
2022/07/16 02:26:34;;;;;;;3.88;2.20;;;;;;;15.55;98.59;93310.50;5050209;28;20091;-85
2022/07/16 02:29:01;;;;;;;4.35;2.22;;;;;;;15.57;98.48;93315.44;5050226;28;20049;-85
2022/07/16 02:31:28;;;;;;;3.78;2.30;;;;;;;15.40;98.64;93294.75;5053067;28;20049;-87
2022/07/16 02:33:56;;;;;;;2.97;2.30;;;;;;;15.50;99.22;93321.56;5050167;28;21323;-85
2022/07/16 02:36:23;;;;;;;3.17;2.13;;;;;;;15.45;99.92;93316.31;5049871;28;20062;-83
2022/07/16 02:38:49;;;;;;;3.78;2.25;;;;;;;15.39;100.00;93316.47;5050069;28;20107;-84
2022/07/16 02:41:16;;;;;;;4.55;2.45;;;;;;;15.39;99.49;93314.69;5049525;28;20052;-85
2022/07/16 02:43:43;;;;;;;4.90;2.65;;;;;;;15.42;98.63;93316.03;5049838;28;20044;-86
2022/07/16 02:46:10;;;;;;;3.22;2.15;;;;;;;15.40;98.22;93311.06;5049782;28;20055;-86
2022/07/16 02:48:37;;;;;;;2.80;2.22;;;;;;;15.41;98.13;93317.03;5049711;28;20126;-85
2022/07/16 02:51:06;;;;;;;3.83;2.33;;;;;;;15.31;98.30;93310.69;5049829;28;20449;-85
2022/07/16 02:53:33;;;;;;;3.17;2.05;;;;;;;15.29;98.10;93317.91;5049649;28;20045;-85
2022/07/16 02:56:00;;;;;;;4.32;2.30;;;;;;;15.10;99.02;93309.59;5049562;28;20045;-85
2022/07/16 02:58:26;;;;;;;2.42;2.15;;;;;;;15.06;100.00;93318.84;5049635;28;20446;-85
2022/07/16 03:00:53;;;;;;;4.70;2.42;;;;;;;14.99;100.00;93315.63;5049502;28;20489;-84
2022/07/16 03:03:20;;;;;;;3.58;2.30;;;;;;;15.06;100.00;93321.44;5049820;28;20058;-84
2022/07/16 03:05:46;;;;;;;4.80;2.78;;;;;;;15.10;100.00;93325.13;5049387;28;20045;-84
2022/07/16 03:08:15;;;;;;;6.63;2.65;;;;;;;15.09;99.83;93323.56;5049409;28;20045;-86
2022/07/16 03:10:41;;;;;;;3.97;2.60;;;;;;;15.12;100.00;93333.44;5049333;28;20151;-86
2022/07/16 03:13:08;;;;;;;4.97;2.60;;;;;;;15.14;100.00;93325.44;5049487;28;20429;-86
2022/07/16 03:15:35;;;;;;;3.05;2.17;;;;;;;15.16;100.00;93336.31;5049207;28;20563;-85
2022/07/16 03:18:02;;;;;;;3.58;2.67;;;;;;;15.14;100.00;93330.63;5048564;28;20052;-85
2022/07/16 03:20:28;;;;;;;4.40;2.70;;;;;;;15.09;100.00;93333.91;5048815;28;20088;-85
2022/07/16 03:22:55;;;;;;;5.18;2.83;;;;;;;15.01;100.00;93335.06;5047092;28;20049;-85
2022/07/16 03:25:23;;;;;;;6.68;2.47;;;;;;;14.82;100.00;93309.41;5048736;28;20049;-85
2022/07/16 03:27:50;;;;;;;3.97;2.45;;;;;;;14.84;100.00;93311.78;5048886;28;20498;-84
2022/07/16 03:30:18;;;;;;;11.82;2.90;;;;;;;14.99;100.00;93333.75;5048781;28;20110;-85
2022/07/16 03:32:45;;;;;;;6.35;2.72;;;;;;;14.96;100.00;93333.19;5049294;28;20047;-86
2022/07/16 03:35:13;;;;;;;5.35;2.97;;;;;;;14.99;100.00;93336.31;5048630;28;20400;-84
2022/07/16 03:40:23;;;;;;;15.43;4.50;;;;;;;14.92;100.00;93331.28;5047842;28;20399;-84
2022/07/16 03:42:49;;;;;;;5.75;3.38;;;;;;;14.98;100.00;93340.72;5048449;28;20490;-84
2022/07/16 03:45:16;;;;;;;4.15;2.70;;;;;;;14.77;100.00;93311.13;5048442;28;20103;-83
2022/07/16 03:47:44;;;;;;;6.93;3.63;;;;;;;14.92;100.00;93333.88;5048854;28;20541;-83
2022/07/16 03:50:11;;;;;;;7.53;3.92;;;;;;;15.00;100.00;93337.88;5063789;28;20129;-82
2022/07/16 03:52:38;;;;;;;7.82;3.10;;;;;;;15.03;100.00;93335.63;5046586;28;20548;-84
2022/07/16 03:55:05;;;;;;;5.25;2.95;;;;;;;15.09;100.00;93341.66;5064673;28;20147;-86
2022/07/16 03:57:33;;;;;;;4.97;2.70;;;;;;;14.87;100.00;93300.19;5051562;28;20098;-88
2022/07/16 04:00:00;;;;;;;4.75;2.70;;;;;;;15.13;100.00;93339.41;5051211;28;20044;-82
2022/07/16 04:02:27;;;;;;;3.63;2.30;;;;;;;15.20;100.00;93330.47;5051214;28;20110;-83
2022/07/16 04:04:54;;;;;;;3.35;2.50;;;;;;;15.27;100.00;93339.88;5068969;28;20090;-82
2022/07/16 04:07:21;;;;;;;4.25;2.03;;;;;;;15.15;100.00;93325.22;5050016;28;20049;-84
2022/07/16 04:09:47;;;;;;;3.20;2.45;;;;;;;15.31;100.00;93343.53;5056591;28;20114;-82
2022/07/16 04:12:14;;;;;;;5.38;2.45;;;;;;;15.32;100.00;93332.97;5051323;28;20052;-81
2022/07/16 04:14:42;;;;;;;7.22;2.63;;;;;;;15.38;100.00;93340.81;5067434;28;20493;-83
2022/07/16 04:17:09;;;;;;;6.47;3.17;;;;;;;15.43;100.00;93341.69;5051653;28;20045;-83
2022/07/16 04:19:36;;;;;;;5.70;2.88;;;;;;;15.48;100.00;93341.75;5048319;28;20053;-82
2022/07/16 04:22:03;;;;;;;3.97;2.53;;;;;;;15.36;100.00;93317.75;5050623;28;20099;-82
2022/07/16 04:24:30;;;;;;;4.13;2.80;;;;;;;15.58;100.00;93338.53;5060839;28;20049;-81
2022/07/16 04:26:56;;;;;;;3.42;2.63;;;;;;;15.69;100.00;93334.25;5067188;28;20559;-81
2022/07/16 04:29:23;;;;;;;4.28;2.40;;;;;;;15.65;100.00;93317.66;5065623;28;20059;-82
2022/07/16 04:31:51;;;;;;;6.85;2.83;;;;;;;15.83;100.00;93339.13;5077926;28;20089;-81
2022/07/16 04:34:18;;;;;;;4.43;2.53;;;;;;;15.88;100.00;93336.59;5075297;28;20048;-81
2022/07/16 04:36:45;;;;;;;3.70;2.67;;;;;;;15.92;100.00;93335.06;5072700;28;20049;-80
2022/07/16 04:39:12;;;;;;;4.20;3.22;;;;;;;15.99;100.00;93335.72;5072523;28;20059;-80
2022/07/16 04:41:39;;;;;;;8.75;3.10;;;;;;;16.05;100.00;93344.34;5080634;28;20040;-80
2022/07/16 04:44:06;;;;;;;6.50;3.38;;;;;;;16.09;100.00;93335.06;5072672;28;20178;-80
2022/07/16 04:46:32;;;;;;;4.75;3.17;;;;;;;16.20;100.00;93346.31;5072375;28;20060;-80
2022/07/16 04:49:01;;;;;;;5.95;3.30;;;;;;;16.28;99.26;93339.94;5072072;28;20498;-81
2022/07/16 04:51:27;;;;;;;5.65;3.08;;;;;;;16.41;98.77;93344.78;5072232;28;20063;-80
2022/07/16 04:53:54;;;;;;;5.13;3.13;;;;;;;16.52;97.40;93344.88;5055921;28;20043;-80
2022/07/16 04:56:21;;;;;;;5.72;3.10;;;;;;;16.56;98.21;93333.78;5051545;28;20491;-80
2022/07/16 04:58:48;;;;;;;6.75;2.63;;;;;;;16.74;98.15;93339.66;5054571;28;20086;-80
2022/07/16 05:01:14;;;;;;;7.45;2.80;;;;;;;16.91;95.99;93349.94;5048503;28;20053;-83
2022/07/16 05:03:41;;;;;;;5.15;3.08;;;;;;;16.99;95.47;93350.53;5049779;28;20554;-83
2022/07/16 05:06:09;;;;;;;4.47;3.00;;;;;;;16.96;96.20;93334.41;5051342;28;20049;-84
2022/07/16 05:08:36;;;;;;;5.13;3.08;;;;;;;17.16;95.10;93346.03;5059902;28;20106;-83
2022/07/16 05:11:03;;;;;;;5.18;3.20;;;;;;;17.31;94.02;93352.38;5072347;28;20121;-85
2022/07/16 05:13:29;;;;;;;6.10;4.10;;;;;;;17.46;94.99;93355.06;5071892;28;20094;-85
2022/07/16 05:15:57;;;;;;;5.82;4.28;;;;;;;17.54;95.50;93347.88;5071673;28;20105;-86
2022/07/16 05:18:23;;;;;;;5.70;3.72;;;;;;;17.63;95.21;93352.34;5071532;28;20044;-84
2022/07/16 05:20:50;;;;;;;5.82;3.50;;;;;;;17.77;93.47;93363.09;5071941;28;20056;-84
2022/07/16 05:23:18;;;;;;;5.50;3.22;;;;;;;17.83;99.07;93350.13;5071821;28;20502;-83
2022/07/16 05:25:45;;;;;;;5.85;2.80;;;;;;;17.98;94.62;93352.81;5071736;28;20090;-81
2022/07/16 05:28:12;;;;;;;4.32;2.90;;;;;;;18.03;92.69;93350.25;5071704;28;20053;-80
2022/07/16 05:30:38;;;;;;;5.40;3.30;;;;;;;18.09;91.98;93340.66;5071641;28;20427;-82
2022/07/16 05:33:05;;;;;;;5.93;3.45;;;;;;;18.20;93.08;93343.31;5076286;28;20098;-80
2022/07/16 05:35:32;;;;;;;6.22;3.15;;;;;;;18.45;95.57;93353.03;5071185;28;20105;-80
2022/07/16 05:37:59;;;;;;;6.22;2.85;;;;;;;18.60;95.05;93354.88;5071885;28;20471;-79
2022/07/16 05:40:27;;;;;;;4.90;3.08;;;;;;;18.88;91.99;93352.88;5071395;28;20036;-79
2022/07/16 05:42:54;;;;;;;5.53;2.85;;;;;;;19.12;87.33;93352.41;5070848;28;20071;-79
2022/07/16 05:45:20;;;;;;;6.18;2.78;;;;;;;19.36;83.96;93352.69;5071557;28;20048;-79
2022/07/16 05:47:47;;;;;;;6.90;3.30;;;;;;;19.60;84.36;93361.78;5071754;28;20102;-79
2022/07/16 05:50:14;;;;;;;11.00;5.55;;;;;;;19.90;80.96;93363.56;5071275;28;20502;-79
2022/07/16 05:52:41;;;;;;;22.80;10.10;;;;;;;20.19;81.08;93367.44;5071427;28;20036;-79
2022/07/16 05:55:09;;;;;;;46.38;20.75;;;;;;;20.50;77.33;93364.72;5072372;28;20048;-79
2022/07/16 05:57:37;;;;;;;41.53;18.27;;;;;;;20.82;77.77;93373.97;5071332;28;20117;-79
2022/07/16 06:00:05;;;;;;;58.47;23.25;;;;;;;21.17;75.01;93370.66;5071498;28;20053;-79
2022/07/16 06:02:32;;;;;;;45.65;19.95;;;;;;;21.44;72.35;93370.16;5071260;28;20509;-79
2022/07/16 06:04:59;;;;;;;32.88;14.45;;;;;;;21.80;74.06;93369.13;5071352;28;20052;-83
2022/07/16 06:07:26;;;;;;;22.55;10.60;;;;;;;22.12;73.87;93367.75;5071278;28;20383;-84
2022/07/16 06:09:52;;;;;;;21.52;9.82;;;;;;;22.46;71.37;93362.69;5070866;28;20041;-85
2022/07/16 06:12:19;;;;;;;18.70;8.35;;;;;;;22.75;67.27;93359.19;5071157;28;20052;-85
2022/07/16 06:14:53;;;;;;;19.05;8.93;;;;;;;23.04;66.64;93356.44;5064573;28;20490;-85
2022/07/16 06:17:21;;;;;;;28.48;9.43;;;;;;;23.35;64.18;93352.63;5051212;28;20446;-86
2022/07/16 06:19:48;;;;;;;20.75;9.60;;;;;;;23.36;64.20;93359.41;5053001;28;20045;-86
2022/07/16 06:22:15;;;;;;;20.15;8.77;;;;;;;23.47;64.25;93358.19;5050421;28;20418;-87
2022/07/16 06:24:42;;;;;;;22.13;9.18;;;;;;;23.84;63.09;93357.59;5050550;28;20080;-84
2022/07/16 06:27:10;;;;;;;20.13;8.52;;;;;;;24.03;61.77;93358.28;5050256;28;20045;-84
2022/07/16 06:29:38;;;;;;;28.92;10.50;;;;;;;24.08;60.68;93352.22;5050539;28;20045;-84
2022/07/16 06:32:07;;;;;;;21.15;8.80;;;;;;;23.95;60.96;93350.31;5055973;28;20048;-83
2022/07/16 06:34:34;;;;;;;25.13;9.57;;;;;;;24.24;62.95;93346.66;5060050;28;20088;-81
2022/07/16 06:37:01;;;;;;;25.05;8.73;;;;;;;24.73;61.47;93344.38;5066231;28;20098;-81
2022/07/16 06:39:27;;;;;;;24.85;8.52;;;;;;;25.23;59.84;93342.78;5070612;28;20044;-82
2022/07/16 06:41:54;;;;;;;24.85;7.88;;;;;;;25.30;56.48;93347.63;5070089;28;20044;-81
2022/07/16 06:44:21;;;;;;;22.05;7.28;;;;;;;25.58;56.53;93342.25;5070574;28;20049;-81
2022/07/16 06:46:48;;;;;;;23.70;7.25;;;;;;;25.90;54.55;93348.28;5070339;28;20058;-79
2022/07/16 06:49:16;;;;;;;22.30;7.43;;;;;;;26.26;53.43;93347.38;5070223;28;20041;-80
2022/07/16 06:51:43;;;;;;;18.48;6.47;;;;;;;26.34;52.45;93351.09;5070205;28;20044;-80
2022/07/16 06:54:09;;;;;;;21.85;7.32;;;;;;;26.39;52.91;93331.78;5069065;28;20494;-81
2022/07/16 06:56:36;;;;;;;21.98;7.82;;;;;;;26.45;51.79;93348.19;5070179;28;20090;-81
2022/07/16 06:59:03;;;;;;;26.75;6.80;;;;;;;26.64;52.15;93353.19;5069561;28;20094;-80
2022/07/16 07:01:30;;;;;;;22.90;6.45;;;;;;;27.10;50.99;93350.31;5070145;28;20547;-80
2022/07/16 07:03:56;;;;;;;21.05;6.20;;;;;;;26.63;51.46;93347.16;5069721;28;20045;-80
2022/07/16 07:06:25;;;;;;;25.70;7.72;;;;;;;26.75;53.89;93356.31;5069650;28;20048;-80
2022/07/16 07:08:51;;;;;;;28.27;6.70;;;;;;;26.78;50.93;93355.69;5069460;28;20094;-80
2022/07/16 07:11:18;;;;;;;32.72;8.35;;;;;;;27.18;50.23;93339.75;5063994;28;20125;-81
2022/07/16 07:13:45;;;;;;;25.15;8.35;;;;;;;27.43;51.98;93340.03;5064045;28;20102;-81
2022/07/16 07:16:11;;;;;;;20.83;5.95;;;;;;;26.98;52.37;93356.22;5069634;28;20133;-81
2022/07/16 07:18:41;;;;;;;10.07;4.60;;;;;;;26.71;50.84;93361.44;5069553;28;20110;-81
2022/07/16 07:21:08;;;;;;;16.40;5.55;;;;;;;27.53;51.02;93354.75;5069318;28;20497;-83
2022/07/16 07:23:36;;;;;;;20.20;6.13;;;;;;;28.14;50.46;93345.91;5069533;28;20045;-82
2022/07/16 07:26:03;;;;;;;13.13;6.20;;;;;;;28.69;47.71;93353.25;5069685;28;20044;-81
2022/07/16 07:28:30;;;;;;;17.63;6.50;;;;;;;28.90;47.14;93345.41;5069515;28;20045;-82
2022/07/16 07:30:57;;;;;;;16.50;7.00;;;;;;;28.06;48.27;93354.66;5069289;28;20052;-80
2022/07/16 07:33:24;;;;;;;16.95;6.90;;;;;;;27.84;48.87;93360.94;5070711;28;20052;-81
2022/07/16 07:35:51;;;;;;;22.88;8.07;;;;;;;27.78;48.22;93347.16;5069303;28;20040;-82
2022/07/16 07:38:18;;;;;;;23.13;7.38;;;;;;;28.23;47.98;93361.00;5069035;28;20045;-82
2022/07/16 07:40:46;;;;;;;16.73;6.38;;;;;;;28.57;47.86;93363.75;5069594;28;20098;-80
2022/07/16 07:43:13;;;;;;;19.33;7.07;;;;;;;28.12;47.29;93363.94;5068742;28;20048;-80
2022/07/16 07:45:40;;;;;;;20.30;7.22;;;;;;;28.26;48.00;93365.63;5069256;28;20092;-77
2022/07/16 07:48:07;;;;;;;19.15;7.57;;;;;;;28.62;48.19;93364.38;5069025;28;20049;-79
2022/07/16 07:50:34;;;;;;;19.15;7.60;;;;;;;28.67;48.32;93358.09;5068694;28;20048;-78
2022/07/16 07:53:00;;;;;;;17.95;6.97;;;;;;;28.16;48.45;93364.09;5069266;28;20213;-78
2022/07/16 07:55:27;;;;;;;20.42;7.10;;;;;;;28.77;48.40;93360.38;5069246;28;20044;-78
2022/07/16 07:57:55;;;;;;;17.38;7.53;;;;;;;29.36;46.91;93355.28;5069415;28;20101;-80
2022/07/16 08:00:23;;;;;;;20.30;7.28;;;;;;;29.77;47.04;93349.47;5069523;28;20539;-79
2022/07/16 08:02:50;;;;;;;18.92;7.00;;;;;;;30.22;45.45;93363.81;5069361;28;20086;-79
2022/07/16 08:05:17;;;;;;;21.52;6.38;;;;;;;30.63;44.41;93340.78;5067911;28;20060;-79
2022/07/16 08:07:45;;;;;;;16.55;6.10;;;;;;;31.03;42.67;93355.22;5060625;28;20105;-79
2022/07/16 08:10:12;;;;;;;16.67;5.93;;;;;;;31.15;43.29;93353.63;5073082;28;20049;-79
2022/07/16 08:12:40;;;;;;;15.68;5.55;;;;;;;31.67;42.47;93345.91;5073103;28;20106;-78
2022/07/16 08:15:10;;;;;;;12.35;5.88;;;;;;;31.82;40.74;93350.47;5072982;28;20097;-79
2022/07/16 08:17:37;;;;;;;19.83;5.93;;;;;;;31.81;41.88;93346.28;5072580;28;20468;-79
2022/07/16 08:20:06;;;;;;;13.88;5.20;;;;;;;31.70;41.25;93346.00;5072815;28;20049;-79
2022/07/16 08:22:33;;;;;;;12.63;5.13;;;;;;;31.50;42.32;93341.69;5072674;28;20080;-80
2022/07/16 08:27:43;;;;;;;17.47;5.60;;;;;;;32.03;41.71;93348.72;5072724;28;20091;-81
2022/07/16 08:30:12;;;;;;;14.02;4.93;;;;;;;32.23;41.00;93347.69;5072569;28;20285;-83
2022/07/16 08:32:38;;;;;;;11.93;4.47;;;;;;;32.73;39.76;93352.59;5084511;28;20052;-83
2022/07/16 08:35:06;;;;;;;12.88;4.78;;;;;;;31.98;39.73;93344.44;5069201;28;20044;-83
2022/07/16 08:37:35;;;;;;;11.02;4.40;;;;;;;30.79;40.42;93346.19;5069542;28;20448;-83
2022/07/16 08:40:04;;;;;;;10.63;5.05;;;;;;;31.28;41.18;93318.00;5070872;28;20792;-83
2022/07/16 08:42:32;;;;;;;12.05;3.90;;;;;;;32.20;40.64;93345.69;5065030;28;20044;-84
2022/07/16 08:45:01;;;;;;;8.93;4.43;;;;;;;32.78;39.80;93348.91;5056265;28;20052;-82
2022/07/16 08:47:30;;;;;;;13.27;3.83;;;;;;;33.39;38.88;93354.69;5053975;28;20511;-84
2022/07/16 08:49:59;;;;;;;12.88;3.85;;;;;;;33.77;37.15;93347.00;5051790;28;20044;-82
2022/07/16 08:52:28;;;;;;;9.27;3.25;;;;;;;33.51;36.30;93353.00;5062584;28;20063;-82
2022/07/16 08:54:55;;;;;;;11.43;4.57;;;;;;;33.95;37.04;93349.19;5072339;28;20059;-84
2022/07/16 08:57:23;;;;;;;10.15;4.50;;;;;;;34.03;36.92;93356.19;5072647;28;20052;-83
2022/07/16 08:59:52;;;;;;;10.07;3.20;;;;;;;34.19;35.65;93356.09;5071761;28;20048;-84
2022/07/16 09:02:19;;;;;;;11.15;3.40;;;;;;;32.66;36.44;93339.91;5071784;28;20122;-83
2022/07/16 09:04:47;;;;;;;9.75;4.15;;;;;;;31.70;39.03;93361.19;5071586;28;20448;-83
2022/07/16 09:07:15;;;;;;;18.58;4.30;;;;;;;32.12;39.56;93360.69;5071957;28;20037;-83
2022/07/16 09:09:44;;;;;;;16.55;4.30;;;;;;;32.47;38.19;93347.84;5071970;28;20102;-82
2022/07/16 09:12:11;;;;;;;12.65;4.43;;;;;;;32.09;39.92;93352.66;5071846;28;20410;-82
2022/07/16 09:14:38;;;;;;;18.48;3.95;;;;;;;32.53;38.56;93344.56;5072051;28;20044;-83
2022/07/16 09:17:05;;;;;;;7.68;4.32;;;;;;;33.13;37.63;93350.75;5070789;28;20056;-83
2022/07/16 09:19:32;;;;;;;13.82;4.05;;;;;;;32.45;37.47;93334.91;5071557;28;20835;-83
2022/07/16 09:22:03;;;;;;;8.40;3.70;;;;;;;33.12;38.24;93327.94;5071513;28;20094;-83
2022/07/16 09:24:40;;;;;;;12.07;4.10;;;;;;;33.67;36.69;93343.03;5071855;28;20059;-84
2022/07/16 09:27:08;;;;;;;12.93;3.50;;;;;;;33.67;36.29;93339.59;5071505;28;20067;-83
2022/07/16 09:29:36;;;;;;;11.27;4.20;;;;;;;33.05;39.44;93339.19;5071541;28;20048;-84
2022/07/16 09:32:03;;;;;;;11.98;3.85;;;;;;;32.93;39.62;93324.13;5080172;28;20048;-82
2022/07/16 09:34:30;;;;;;;8.82;4.18;;;;;;;31.66;40.42;93341.72;5071568;28;20436;-83
2022/07/16 09:36:59;;;;;;;7.63;3.30;;;;;;;31.38;42.28;93332.66;5071266;28;20048;-82
2022/07/16 09:39:28;;;;;;;8.20;3.90;;;;;;;31.24;44.90;93325.06;5071174;28;20052;-82
2022/07/16 09:41:55;;;;;;;10.85;3.70;;;;;;;30.96;44.47;93327.72;5071369;28;20412;-82
2022/07/16 09:44:24;;;;;;;5.97;4.03;;;;;;;30.99;42.97;93335.00;5071411;28;20048;-83
2022/07/16 09:47:14;;;;;;;6.70;3.28;;;;;;;30.46;44.69;93335.75;5071607;28;20056;-82
2022/07/16 09:49:52;;;;;;;11.30;3.28;;;;;;;30.93;44.68;93326.53;5051215;28;20543;-83
2022/07/16 09:52:31;;;;;;;10.32;3.30;;;;;;;31.97;43.10;93329.59;5070719;28;20049;-84
2022/07/16 09:55:00;;;;;;;8.90;3.03;;;;;;;32.75;41.87;93328.31;5071312;28;20044;-84
2022/07/16 09:57:28;;;;;;;6.97;3.15;;;;;;;32.64;40.08;93312.88;5071215;28;20044;-82
2022/07/16 09:59:56;;;;;;;4.05;2.83;;;;;;;32.61;39.98;93315.47;5070685;28;20048;-82
2022/07/16 10:02:23;;;;;;;6.72;3.20;;;;;;;33.06;39.97;93324.03;5071291;28;20443;-82
2022/07/16 10:04:51;;;;;;;4.05;2.60;;;;;;;33.25;39.36;93322.47;5069566;28;20051;-82
2022/07/16 10:07:18;;;;;;;4.32;2.95;;;;;;;32.65;41.57;93317.09;5058832;28;20048;-82
2022/07/16 10:09:45;;;;;;;4.55;2.75;;;;;;;32.54;39.12;93308.13;5070831;28;20185;-81
2022/07/16 10:12:15;;;;;;;7.35;3.20;;;;;;;32.79;39.24;93315.84;5070585;28;20351;-81
2022/07/16 10:14:47;;;;;;;4.57;2.58;;;;;;;33.46;37.27;93312.22;5070342;28;20044;-81
2022/07/16 10:17:15;;;;;;;3.35;2.50;;;;;;;33.78;37.88;93291.84;5070217;28;20044;-81
2022/07/16 10:19:43;;;;;;;7.88;2.35;;;;;;;33.96;38.20;93306.22;5070320;28;20592;-82
2022/07/16 10:22:16;;;;;;;5.05;2.40;;;;;;;34.15;37.03;93315.28;5070321;28;20063;-82
2022/07/16 10:24:54;;;;;;;3.63;2.28;;;;;;;34.54;36.67;93305.53;5070162;28;20098;-84
2022/07/16 10:27:28;;;;;;;5.82;2.95;;;;;;;34.99;37.04;93314.50;5056890;28;20067;-82
2022/07/16 10:30:15;;;;;;;5.95;2.75;;;;;;;34.27;35.84;93308.22;5064445;28;20048;-81
2022/07/16 10:33:13;;;;;;;4.18;2.25;;;;;;;33.99;35.28;93308.19;5060403;28;20053;-82
2022/07/16 10:35:47;;;;;;;5.72;1.73;;;;;;;32.71;36.33;93290.25;5064634;28;20068;-82
2022/07/16 10:38:16;;;;;;;5.15;2.05;;;;;;;31.68;38.82;93291.69;5069817;28;20045;-83
2022/07/16 10:40:45;;;;;;;2.63;1.80;;;;;;;31.66;39.17;93299.25;5070467;28;20056;-81
2022/07/16 10:43:16;;;;;;;6.22;2.00;;;;;;;31.02;38.07;93313.13;5069909;28;20546;-82
2022/07/16 10:45:57;;;;;;;2.80;1.92;;;;;;;31.29;39.76;93286.94;5069317;28;20090;-82
2022/07/16 10:48:25;;;;;;;3.80;2.00;;;;;;;32.09;40.52;93307.47;5053777;28;20548;-82
2022/07/16 10:51:12;;;;;;;4.53;1.92;;;;;;;32.40;39.18;93306.66;5068424;28;20409;-83
2022/07/16 10:54:29;;;;;;;3.05;2.00;;;;;;;31.85;37.72;93307.31;5069849;28;20052;-81
2022/07/16 10:56:58;;;;;;;2.80;1.83;;;;;;;30.83;39.35;93311.06;5069741;28;20041;-82
2022/07/16 10:59:28;;;;;;;10.07;2.10;;;;;;;30.23;39.68;93318.41;5069788;28;20052;-80
2022/07/16 11:01:56;;;;;;;4.18;1.75;;;;;;;30.15;39.29;93314.00;5069407;28;20066;-81
2022/07/16 11:04:28;;;;;;;3.00;2.03;;;;;;;30.35;39.78;93315.00;5069894;28;20048;-81
2022/07/16 11:06:56;;;;;;;6.13;2.10;;;;;;;30.61;39.54;93308.56;5066939;28;20138;-81
2022/07/16 11:09:28;;;;;;;3.53;2.20;;;;;;;31.36;40.01;93310.22;5054074;28;20491;-81
2022/07/16 11:11:56;;;;;;;5.78;1.80;;;;;;;30.34;40.52;93315.31;5069147;28;20052;-83
2022/07/16 11:14:30;;;;;;;2.88;1.77;;;;;;;30.66;40.53;93296.94;5069312;28;20135;-81
2022/07/16 11:16:57;;;;;;;3.73;2.53;;;;;;;30.76;39.61;93304.47;5069207;28;20502;-84
2022/07/16 11:19:25;;;;;;;4.00;2.05;;;;;;;30.44;39.79;93316.75;5069151;28;20574;-80
2022/07/16 11:21:53;;;;;;;2.95;2.05;;;;;;;30.21;39.63;93272.94;5066636;28;20132;-81
2022/07/16 11:24:20;;;;;;;4.63;2.15;;;;;;;31.38;40.34;93305.38;5058178;28;20045;-82
2022/07/16 11:26:48;;;;;;;5.45;2.38;;;;;;;31.62;38.95;93303.69;5052197;28;20052;-83
2022/07/16 11:29:15;;;;;;;3.40;1.90;;;;;;;32.10;38.19;93298.41;5055440;28;20048;-83
2022/07/16 11:31:43;;;;;;;5.00;1.77;;;;;;;31.72;37.70;93295.22;5075177;28;20047;-81
2022/07/16 11:34:11;;;;;;;4.22;1.80;;;;;;;31.33;37.88;93311.69;5070504;28;20098;-82
2022/07/16 11:36:40;;;;;;;4.85;1.67;;;;;;;31.13;38.66;93305.44;5069234;28;20044;-83
2022/07/16 11:39:08;;;;;;;3.65;1.80;;;;;;;30.96;40.08;93301.97;5068640;28;20121;-82
2022/07/16 11:41:36;;;;;;;5.65;2.25;;;;;;;31.18;39.20;93298.03;5069223;28;20044;-82
2022/07/16 11:44:08;;;;;;;7.18;1.70;;;;;;;30.44;39.00;93301.63;5068868;28;20106;-82